Olin, Iowa
Current Conditions -  °F | °C
As of 10:35 PM on Saturday 22 Nov 2014 (Local Time) from KMXO Reporting Station
Overcast Overcast  
Wind Chill: 52°   Ceiling: 5000
Heat Index: 52°   Visibility: 10mi
Dew Point: 50°   Wind: 14mph
Humidity: 94%   Direction: 170°S
Pressure: 29.72"   Gusts: 21mph
Location:  42°N, 91.14°W
Report Text: KMXO 230435Z AUTO 17012G18KT 10SM SCT022 BKN050 OVC055 11/10 A2972 RMK AO2
Loading
Personal Weather Stations






























Interactive Weather Map New forecast layout! Learn more

10-Day Weather Forecast

Advertisements
Track Severe Weather on mobile